createdAt,value
2023-04-08T00:01:35.530Z,6.50
2023-04-08T00:04:03.330Z,6.50
2023-04-08T00:06:31.644Z,6.50
2023-04-08T00:09:01.311Z,6.50
2023-04-08T00:11:28.364Z,6.40
2023-04-08T00:13:55.457Z,6.40
2023-04-08T00:16:22.722Z,6.30
2023-04-08T00:18:50.062Z,6.30
2023-04-08T00:21:18.099Z,6.30
2023-04-08T00:23:45.373Z,6.30
2023-04-08T00:26:12.456Z,6.20
2023-04-08T00:28:41.219Z,6.20
2023-04-08T00:31:08.400Z,6.20
2023-04-08T00:33:35.703Z,6.20
2023-04-08T00:36:05.812Z,6.20
2023-04-08T00:38:32.987Z,6.20
2023-04-08T00:41:00.124Z,6.20
2023-04-08T00:43:27.187Z,6.10
2023-04-08T00:46:00.134Z,6.10
2023-04-08T00:48:28.491Z,6.10
2023-04-08T00:50:55.472Z,6.00
2023-04-08T00:53:23.325Z,6.10
2023-04-08T00:55:51.779Z,6.00
2023-04-08T00:58:19.052Z,6.00
2023-04-08T01:01:03.836Z,5.90
2023-04-08T01:03:42.858Z,5.90
2023-04-08T01:06:47.991Z,5.90
2023-04-08T01:09:20.963Z,5.90
2023-04-08T01:11:50.973Z,5.80
2023-04-08T01:14:22.034Z,5.70
2023-04-08T01:16:50.328Z,5.70
2023-04-08T01:19:27.006Z,5.70
2023-04-08T01:22:03.378Z,5.70
2023-04-08T01:24:36.382Z,5.70
2023-04-08T01:27:04.922Z,5.70
2023-04-08T01:29:34.033Z,5.70
2023-04-08T01:32:02.364Z,5.70
2023-04-08T01:34:30.723Z,5.70
2023-04-08T01:36:59.713Z,5.70
2023-04-08T01:39:28.652Z,5.70
2023-04-08T01:42:01.364Z,5.70
2023-04-08T01:44:29.817Z,5.70
2023-04-08T01:46:56.958Z,5.70
2023-04-08T01:49:26.037Z,5.70
2023-04-08T01:51:55.458Z,5.70
2023-04-08T01:54:22.688Z,5.70
2023-04-08T01:56:52.352Z,5.60
2023-04-08T01:59:21.766Z,5.60
2023-04-08T02:01:50.459Z,5.50
2023-04-08T02:04:17.657Z,5.50
2023-04-08T02:06:46.086Z,5.50
2023-04-08T02:09:13.825Z,5.40
2023-04-08T02:11:40.954Z,5.40
2023-04-08T02:14:10.688Z,5.40
2023-04-08T02:16:48.804Z,5.40
2023-04-08T02:19:36.543Z,5.30
2023-04-08T02:22:07.833Z,5.30
2023-04-08T02:24:39.874Z,5.30
2023-04-08T02:27:11.900Z,5.30
2023-04-08T02:29:43.715Z,5.30
2023-04-08T02:32:15.211Z,5.20
2023-04-08T02:34:43.692Z,5.20
2023-04-08T02:37:14.144Z,5.10
2023-04-08T02:39:41.226Z,5.10
2023-04-08T02:42:12.036Z,5.10
2023-04-08T02:44:39.109Z,5.10
2023-04-08T02:47:06.348Z,5.10
2023-04-08T02:49:35.562Z,5.00
2023-04-08T02:52:02.766Z,5.00
2023-04-08T02:54:29.848Z,5.00
2023-04-08T02:56:56.908Z,5.00
2023-04-08T02:59:24.069Z,4.90
2023-04-08T03:01:51.365Z,4.90
2023-04-08T03:04:18.507Z,4.90
2023-04-08T03:06:45.560Z,4.90
2023-04-08T03:09:12.681Z,4.80
2023-04-08T03:11:39.838Z,4.80
2023-04-08T03:14:06.860Z,4.80
2023-04-08T03:16:33.893Z,4.80
2023-04-08T03:19:01.061Z,4.80
2023-04-08T03:21:28.100Z,4.70
2023-04-08T03:23:55.312Z,4.70
2023-04-08T03:26:22.382Z,4.70
2023-04-08T03:28:49.812Z,4.70
2023-04-08T03:31:17.315Z,4.60
2023-04-08T03:33:44.379Z,4.60
2023-04-08T03:36:12.257Z,4.50
2023-04-08T03:38:39.255Z,4.50
2023-04-08T03:41:09.154Z,4.50
2023-04-08T03:43:38.145Z,4.50
2023-04-08T03:46:05.264Z,4.40
2023-04-08T03:48:32.731Z,4.40
2023-04-08T03:50:59.816Z,4.40
2023-04-08T03:53:29.238Z,4.40
2023-04-08T03:56:00.786Z,4.30
2023-04-08T03:58:27.798Z,4.30
2023-04-08T04:00:54.797Z,4.30
2023-04-08T04:03:22.001Z,4.30
2023-04-08T04:05:49.134Z,4.20
2023-04-08T04:08:16.195Z,4.20
2023-04-08T04:10:43.353Z,4.20
2023-04-08T04:13:13.107Z,4.20
2023-04-08T04:15:42.784Z,4.10
2023-04-08T04:18:12.106Z,4.10
2023-04-08T04:20:43.199Z,4.10
2023-04-08T04:23:12.530Z,4.10
2023-04-08T04:25:42.020Z,4.10
2023-04-08T04:28:12.903Z,4.10
2023-04-08T04:30:40.768Z,4.10
2023-04-08T04:33:08.433Z,4.10
2023-04-08T04:35:35.783Z,4.10
2023-04-08T04:38:02.977Z,4.00
2023-04-08T04:40:29.981Z,4.00
2023-04-08T04:42:56.885Z,4.00
2023-04-08T04:45:23.920Z,4.00
2023-04-08T04:47:50.930Z,4.00
2023-04-08T04:50:18.020Z,4.00
2023-04-08T04:52:45.127Z,4.10
2023-04-08T04:55:13.490Z,4.10
2023-04-08T04:57:40.694Z,4.10
2023-04-08T05:00:08.611Z,4.10
2023-04-08T05:02:35.913Z,4.00
2023-04-08T05:05:03.332Z,4.00
2023-04-08T05:07:30.412Z,4.00
2023-04-08T05:09:59.994Z,4.00
2023-04-08T05:12:29.246Z,4.00
2023-04-08T05:14:58.013Z,4.00
2023-04-08T05:17:25.043Z,4.00
2023-04-08T05:19:53.382Z,4.00
2023-04-08T05:22:20.453Z,4.00
2023-04-08T05:24:47.431Z,4.00
2023-04-08T05:27:14.442Z,4.00
2023-04-08T05:29:41.624Z,4.00
2023-04-08T05:32:08.644Z,4.00
2023-04-08T05:34:35.658Z,4.00
2023-04-08T05:37:02.726Z,4.00
2023-04-08T05:39:29.786Z,4.10
2023-04-08T05:41:56.935Z,4.10
2023-04-08T05:44:23.929Z,4.10
2023-04-08T05:46:51.209Z,4.10
2023-04-08T05:49:18.304Z,4.20
2023-04-08T05:51:45.472Z,4.20
2023-04-08T05:54:12.530Z,4.30
2023-04-08T05:56:39.520Z,4.30
2023-04-08T05:59:06.498Z,4.30
2023-04-08T06:01:33.672Z,4.40
2023-04-08T06:04:00.853Z,4.40
2023-04-08T06:06:27.912Z,4.50
2023-04-08T06:08:54.849Z,4.60
2023-04-08T06:11:21.873Z,4.70
2023-04-08T06:13:48.822Z,4.70
2023-04-08T06:16:20.362Z,4.80
2023-04-08T06:18:48.489Z,4.90
2023-04-08T06:21:16.779Z,5.00
2023-04-08T06:23:43.722Z,5.10
2023-04-08T06:26:11.180Z,5.20
2023-04-08T06:28:38.054Z,5.20
2023-04-08T06:31:05.109Z,5.30
2023-04-08T06:33:32.095Z,5.40
2023-04-08T06:36:04.059Z,5.50
2023-04-08T06:38:32.113Z,5.60
2023-04-08T06:41:06.651Z,5.60
2023-04-08T06:43:34.986Z,5.70
2023-04-08T06:46:01.983Z,5.80
2023-04-08T06:48:30.539Z,5.80
2023-04-08T06:50:58.853Z,5.90
2023-04-08T06:53:26.491Z,6.00
2023-04-08T06:55:53.499Z,6.00
2023-04-08T06:58:20.652Z,6.10
2023-04-08T07:00:47.732Z,6.20
2023-04-08T07:03:14.892Z,6.20
2023-04-08T07:05:42.236Z,6.30
2023-04-08T07:08:11.793Z,6.40
2023-04-08T07:10:38.923Z,6.50
2023-04-08T07:13:07.730Z,6.60
2023-04-08T07:15:34.737Z,6.70
2023-04-08T07:18:01.808Z,6.80
2023-04-08T07:20:30.281Z,6.80
2023-04-08T07:23:01.666Z,6.90
2023-04-08T07:25:30.005Z,7.00
2023-04-08T07:28:00.133Z,7.00
2023-04-08T07:30:30.166Z,7.10
2023-04-08T07:33:00.078Z,7.20
2023-04-08T07:35:28.017Z,7.30
2023-04-08T07:37:55.113Z,7.40
2023-04-08T07:40:22.345Z,7.50
2023-04-08T07:42:49.440Z,7.60
2023-04-08T07:45:16.549Z,7.70
2023-04-08T07:47:45.963Z,7.80
2023-04-08T07:50:13.256Z,7.90
2023-04-08T07:52:40.268Z,7.90
2023-04-08T07:55:07.716Z,8.00
2023-04-08T07:57:34.932Z,8.10
2023-04-08T08:00:02.003Z,8.20
2023-04-08T08:02:29.277Z,8.30
2023-04-08T08:04:56.557Z,8.40
2023-04-08T08:07:23.578Z,8.50
2023-04-08T08:09:50.800Z,8.60
2023-04-08T08:12:17.775Z,8.80
2023-04-08T08:14:44.896Z,8.90
2023-04-08T08:17:12.776Z,9.00
2023-04-08T08:19:39.921Z,9.00
2023-04-08T08:22:06.901Z,9.00
2023-04-08T08:24:34.424Z,9.20
2023-04-08T08:27:02.885Z,9.20
2023-04-08T08:29:29.889Z,9.30
2023-04-08T08:31:57.029Z,9.30
2023-04-08T08:34:24.278Z,9.30
2023-04-08T08:36:51.303Z,9.40
2023-04-08T08:39:18.287Z,9.40
2023-04-08T08:41:46.116Z,9.50
2023-04-08T08:44:13.538Z,9.50
2023-04-08T08:46:48.465Z,9.50
2023-04-08T08:49:15.663Z,9.50
2023-04-08T08:51:46.315Z,9.50
2023-04-08T08:54:15.012Z,9.50
2023-04-08T08:56:44.678Z,9.50
2023-04-08T08:59:11.660Z,9.60
2023-04-08T09:01:41.590Z,9.60
2023-04-08T09:04:20.493Z,9.70
2023-04-08T09:07:04.945Z,9.80
2023-04-08T09:09:51.917Z,9.80
2023-04-08T09:12:19.415Z,9.90
2023-04-08T09:14:48.384Z,9.90
2023-04-08T09:17:16.367Z,10.00
2023-04-08T09:20:12.843Z,10.10
2023-04-08T09:23:03.265Z,10.10
2023-04-08T09:25:32.791Z,10.20
2023-04-08T09:28:00.571Z,10.20
2023-04-08T09:30:28.351Z,10.30
2023-04-08T09:33:00.471Z,10.40
2023-04-08T09:35:29.960Z,10.50
2023-04-08T09:37:57.035Z,10.50
2023-04-08T09:40:26.502Z,10.60
2023-04-08T09:42:56.257Z,10.70
2023-04-08T09:45:25.767Z,10.80
2023-04-08T09:48:07.908Z,10.80
2023-04-08T09:50:42.752Z,10.90
2023-04-08T09:53:38.326Z,11.00
2023-04-08T09:56:10.655Z,11.10
2023-04-08T09:58:52.788Z,11.10
2023-04-08T10:01:34.827Z,11.10
2023-04-08T10:04:06.385Z,11.20
2023-04-08T10:06:34.995Z,11.20
2023-04-08T10:09:03.283Z,11.30
2023-04-08T10:11:31.814Z,11.50
2023-04-08T10:14:00.422Z,11.70
2023-04-08T10:16:28.441Z,11.90
2023-04-08T10:19:01.495Z,12.10
2023-04-08T10:21:49.884Z,12.20
2023-04-08T10:24:18.788Z,12.50
2023-04-08T10:26:46.204Z,12.90
2023-04-08T10:29:19.678Z,13.10
2023-04-08T10:31:48.913Z,13.40
2023-04-08T10:34:26.351Z,13.40
2023-04-08T10:36:55.852Z,13.20
2023-04-08T10:39:24.060Z,13.00
2023-04-08T10:41:51.933Z,12.90
2023-04-08T10:44:28.160Z,12.90
2023-04-08T10:46:55.933Z,13.00
2023-04-08T10:49:22.986Z,13.00
2023-04-08T10:51:52.500Z,13.10
2023-04-08T10:54:19.516Z,13.10
2023-04-08T10:56:47.778Z,13.20
2023-04-08T10:59:16.980Z,13.40
2023-04-08T11:01:45.831Z,13.50
2023-04-08T11:04:18.845Z,13.60
2023-04-08T11:06:47.567Z,13.70
2023-04-08T11:09:15.344Z,13.70
2023-04-08T11:11:46.405Z,13.70
2023-04-08T11:14:13.931Z,13.80
2023-04-08T11:16:41.418Z,13.90
2023-04-08T11:19:08.965Z,13.90
2023-04-08T11:21:37.587Z,13.90
2023-04-08T11:24:12.217Z,13.80
2023-04-08T11:26:40.664Z,13.90
2023-04-08T11:29:14.108Z,13.90
2023-04-08T11:31:42.903Z,13.90
2023-04-08T11:34:13.071Z,14.00
2023-04-08T11:36:43.327Z,14.10
2023-04-08T11:39:12.802Z,14.20
2023-04-08T11:41:40.726Z,14.30
2023-04-08T11:44:08.501Z,14.30
2023-04-08T11:46:36.398Z,14.30
2023-04-08T11:49:06.816Z,14.20
2023-04-08T11:51:55.242Z,14.10
2023-04-08T11:54:30.150Z,14.10
2023-04-08T11:56:58.450Z,14.10
2023-04-08T11:59:33.119Z,14.00
2023-04-08T12:02:03.423Z,14.00
2023-04-08T12:04:30.910Z,14.00
2023-04-08T12:07:00.709Z,14.00
2023-04-08T12:09:28.902Z,14.00
2023-04-08T12:12:04.901Z,14.00
2023-04-08T12:14:32.273Z,14.10
2023-04-08T12:17:06.137Z,14.20
2023-04-08T12:19:34.448Z,14.20
2023-04-08T12:22:05.638Z,14.10
2023-04-08T12:24:33.100Z,14.10
2023-04-08T12:27:00.059Z,14.00
2023-04-08T12:29:30.205Z,13.90
2023-04-08T12:31:59.916Z,13.80
2023-04-08T12:34:27.163Z,13.80
2023-04-08T12:36:55.594Z,14.00
2023-04-08T12:39:24.541Z,14.30
2023-04-08T12:41:51.900Z,14.40
2023-04-08T12:44:19.423Z,14.50
2023-04-08T12:46:46.641Z,14.70
2023-04-08T12:49:13.773Z,14.80
2023-04-08T12:51:40.958Z,14.90
2023-04-08T12:54:08.813Z,14.90
2023-04-08T12:56:36.110Z,14.90
2023-04-08T12:59:03.115Z,14.80
2023-04-08T13:01:31.156Z,14.80
2023-04-08T13:03:58.892Z,14.80
2023-04-08T13:06:26.662Z,14.80
2023-04-08T13:08:54.114Z,14.90
2023-04-08T13:11:21.439Z,14.90
2023-04-08T13:13:48.776Z,14.90
2023-04-08T13:16:16.027Z,14.80
2023-04-08T13:18:43.254Z,14.70
2023-04-08T13:21:12.975Z,14.70
2023-04-08T13:23:39.964Z,14.70
2023-04-08T13:26:06.869Z,14.60
2023-04-08T13:28:38.723Z,14.60
2023-04-08T13:31:11.053Z,14.50
2023-04-08T13:33:38.102Z,14.60
2023-04-08T13:36:05.545Z,14.50
2023-04-08T13:38:32.646Z,14.60
2023-04-08T13:41:00.418Z,14.60
2023-04-08T13:43:37.713Z,14.60
2023-04-08T13:46:10.051Z,14.70
2023-04-08T13:48:37.138Z,14.70
2023-04-08T13:51:04.326Z,14.70
2023-04-08T13:53:31.383Z,14.70
2023-04-08T13:55:59.235Z,14.70
2023-04-08T13:58:26.746Z,14.70
2023-04-08T14:00:59.685Z,14.70
2023-04-08T14:03:33.226Z,14.60
2023-04-08T14:06:01.854Z,14.50
2023-04-08T14:08:29.273Z,14.50
2023-04-08T14:10:57.814Z,14.40
2023-04-08T14:13:29.782Z,14.30
2023-04-08T14:16:01.333Z,14.30
2023-04-08T14:18:29.506Z,14.30
2023-04-08T14:20:58.760Z,14.30
2023-04-08T14:23:26.052Z,14.30
2023-04-08T14:25:53.083Z,14.30
2023-04-08T14:28:20.109Z,14.20
2023-04-08T14:30:47.741Z,14.20
2023-04-08T14:33:14.893Z,14.10
2023-04-08T14:35:42.257Z,14.00
2023-04-08T14:38:09.365Z,14.00
2023-04-08T14:40:37.803Z,13.90
2023-04-08T14:43:06.565Z,13.90
2023-04-08T14:45:33.630Z,13.90
2023-04-08T14:48:00.828Z,13.90
2023-04-08T14:50:30.910Z,13.90
2023-04-08T14:52:57.940Z,13.90
2023-04-08T14:55:25.994Z,14.00
2023-04-08T14:57:53.100Z,14.00
2023-04-08T15:00:20.110Z,14.00
2023-04-08T15:02:47.235Z,14.10
2023-04-08T15:05:16.906Z,14.10
2023-04-08T15:07:44.190Z,14.10
2023-04-08T15:10:11.429Z,14.10
2023-04-08T15:12:38.651Z,14.20
2023-04-08T15:15:09.642Z,14.30
2023-04-08T15:17:51.980Z,14.40
2023-04-08T15:21:00.048Z,14.60
2023-04-08T15:24:43.447Z,14.80
2023-04-08T15:27:19.735Z,14.90
2023-04-08T15:29:47.784Z,14.80
2023-04-08T15:32:18.466Z,14.90
2023-04-08T15:34:52.934Z,15.00
2023-04-08T15:37:20.037Z,15.10
2023-04-08T15:39:47.133Z,15.20
2023-04-08T15:42:14.210Z,15.20
2023-04-08T15:44:41.506Z,15.20
2023-04-08T15:47:13.510Z,15.30
2023-04-08T15:49:43.280Z,15.30
2023-04-08T15:52:13.472Z,15.30
2023-04-08T15:54:40.580Z,15.30
2023-04-08T15:57:10.182Z,15.30
2023-04-08T15:59:37.671Z,15.20
2023-04-08T16:02:05.010Z,15.20
2023-04-08T16:04:36.331Z,15.30
2023-04-08T16:07:27.002Z,15.40
2023-04-08T16:09:59.245Z,16.10
2023-04-08T16:12:29.778Z,16.20
2023-04-08T16:14:57.099Z,16.00
2023-04-08T16:17:31.116Z,15.70
2023-04-08T16:20:05.094Z,15.50
2023-04-08T16:22:32.178Z,15.40
2023-04-08T16:25:00.634Z,15.20
2023-04-08T16:27:27.803Z,15.10
2023-04-08T16:29:56.792Z,14.90
2023-04-08T16:32:27.156Z,14.80
2023-04-08T16:34:54.366Z,14.70
2023-04-08T16:37:24.610Z,14.50
2023-04-08T16:39:54.315Z,14.40
2023-04-08T16:42:21.386Z,14.30
2023-04-08T16:44:51.361Z,14.10
2023-04-08T16:47:18.506Z,14.00
2023-04-08T16:49:46.070Z,14.00
2023-04-08T16:52:13.171Z,13.90
2023-04-08T16:54:40.188Z,13.80
2023-04-08T17:00:12.767Z,13.70
2023-04-08T17:02:42.485Z,13.60
2023-04-08T17:05:09.949Z,13.60
2023-04-08T17:07:40.016Z,13.50
2023-04-08T17:10:34.929Z,13.50
2023-04-08T17:13:27.913Z,13.50
2023-04-08T17:15:56.350Z,13.40
2023-04-08T17:18:31.444Z,13.40
2023-04-08T17:24:01.436Z,13.30
2023-04-08T17:26:30.933Z,13.20
2023-04-08T17:32:47.222Z,13.20
2023-04-08T17:35:26.900Z,13.20
2023-04-08T17:37:55.314Z,13.10
2023-04-08T17:44:47.566Z,13.10
2023-04-08T17:47:25.052Z,13.00
2023-04-08T17:49:56.196Z,12.90
2023-04-08T17:52:26.051Z,12.90
2023-04-08T17:54:54.306Z,12.90
2023-04-08T18:01:18.644Z,12.90
2023-04-08T18:08:35.786Z,12.70
2023-04-08T18:11:23.301Z,12.70
2023-04-08T18:13:50.892Z,12.70
2023-04-08T18:16:21.857Z,12.60
2023-04-08T18:18:55.720Z,12.60
2023-04-08T18:21:22.855Z,12.60
2023-04-08T18:23:53.374Z,12.60
2023-04-08T18:26:21.520Z,12.50
2023-04-08T18:28:48.638Z,12.50
2023-04-08T18:31:18.666Z,12.50
2023-04-08T18:33:45.739Z,12.50
2023-04-08T18:36:14.021Z,12.40
2023-04-08T18:38:48.717Z,12.40
2023-04-08T18:41:39.522Z,12.30
2023-04-08T18:44:19.973Z,12.30
2023-04-08T18:46:47.403Z,12.30
2023-04-08T19:02:21.102Z,11.90
2023-04-08T19:05:07.231Z,11.90
2023-04-08T19:07:44.540Z,11.80
2023-04-08T19:10:53.835Z,11.80
2023-04-08T19:13:33.270Z,11.70
2023-04-08T19:16:46.907Z,11.70
2023-04-08T19:19:22.680Z,11.70
2023-04-08T19:21:50.176Z,11.70
2023-04-08T19:25:18.852Z,11.70
2023-04-08T19:28:18.140Z,11.70
2023-04-08T19:30:50.070Z,11.60
2023-04-08T19:49:07.150Z,11.40
2023-04-08T19:51:39.760Z,11.30
2023-04-08T19:54:33.988Z,11.20
2023-04-08T20:00:26.073Z,11.10
2023-04-08T20:03:03.901Z,11.20
2023-04-08T20:05:58.868Z,11.10
2023-04-08T20:12:26.997Z,11.10
2023-04-08T20:15:26.826Z,11.10
2023-04-08T20:25:13.843Z,11.00
2023-04-08T20:27:41.730Z,11.00
2023-04-08T20:30:12.299Z,11.00
2023-04-08T20:33:23.018Z,11.00
2023-04-08T20:40:04.769Z,11.00
2023-04-08T20:52:35.473Z,10.90
2023-04-08T20:55:19.269Z,10.90
2023-04-08T20:58:15.089Z,10.90
2023-04-08T21:00:42.271Z,10.90
2023-04-08T21:03:13.279Z,10.90
2023-04-08T21:05:40.987Z,10.90
2023-04-08T21:08:09.412Z,10.90
2023-04-08T21:10:36.528Z,10.90
2023-04-08T21:13:07.584Z,10.90
2023-04-08T21:15:37.055Z,10.90
2023-04-08T21:18:06.142Z,10.90
2023-04-08T21:20:33.169Z,10.90
2023-04-08T21:23:01.024Z,10.90
2023-04-08T21:25:28.210Z,10.90
2023-04-08T21:28:00.130Z,10.90
2023-04-08T21:30:29.761Z,10.90
2023-04-08T21:32:59.420Z,10.90
2023-04-08T21:35:27.804Z,10.80
2023-04-08T21:37:55.091Z,10.80
2023-04-08T21:40:22.271Z,10.80
2023-04-08T21:42:51.231Z,10.80
2023-04-08T21:45:27.325Z,10.80
2023-04-08T21:47:57.057Z,10.80
2023-04-08T21:50:46.929Z,10.80
2023-04-08T21:56:51.534Z,10.80
2023-04-08T21:59:19.174Z,10.80
2023-04-08T22:01:46.260Z,10.80
2023-04-08T22:04:13.576Z,10.80
2023-04-08T22:06:40.613Z,10.80
2023-04-08T22:09:07.868Z,10.80
2023-04-08T22:11:35.057Z,10.80
2023-04-08T22:14:02.129Z,10.80
2023-04-08T22:16:32.230Z,10.80
2023-04-08T22:18:59.500Z,10.80
2023-04-08T22:21:26.701Z,10.80
2023-04-08T22:23:53.796Z,10.80
2023-04-08T22:26:21.623Z,10.80
2023-04-08T22:28:48.755Z,10.80
2023-04-08T22:31:15.847Z,10.80
2023-04-08T22:33:45.947Z,10.80
2023-04-08T22:36:15.998Z,10.80
2023-04-08T22:38:43.393Z,10.80
2023-04-08T22:41:20.885Z,10.80
2023-04-08T22:43:48.778Z,10.80
2023-04-08T22:46:18.121Z,10.80
2023-04-08T22:48:49.462Z,10.80
2023-04-08T22:51:16.959Z,10.80
2023-04-08T22:53:46.695Z,10.70
2023-04-08T22:56:13.761Z,10.80
2023-04-08T22:58:41.102Z,10.70
2023-04-08T23:01:17.392Z,10.70
2023-04-08T23:03:44.711Z,10.70
2023-04-08T23:06:11.827Z,10.70
2023-04-08T23:08:39.144Z,10.70
2023-04-08T23:11:06.822Z,10.70
2023-04-08T23:13:36.476Z,10.70
2023-04-08T23:16:06.567Z,10.70
2023-04-08T23:18:33.551Z,10.70
2023-04-08T23:21:00.750Z,10.70
2023-04-08T23:23:31.528Z,10.70
2023-04-08T23:25:58.593Z,10.70
2023-04-08T23:28:25.669Z,10.70
2023-04-08T23:30:52.953Z,10.70
2023-04-08T23:33:20.046Z,10.70
2023-04-08T23:35:47.183Z,10.70
2023-04-08T23:38:14.255Z,10.70
2023-04-08T23:40:41.309Z,10.70
2023-04-08T23:43:08.480Z,10.70
2023-04-08T23:45:35.482Z,10.70
2023-04-08T23:48:02.614Z,10.60
2023-04-08T23:50:29.719Z,10.60
2023-04-08T23:52:56.808Z,10.60
2023-04-08T23:55:23.852Z,10.60
2023-04-08T23:57:53.764Z,10.60
